createdAt,value
2023-05-13T00:02:08.208Z,7.60
2023-05-13T00:04:34.930Z,10.20
2023-05-13T00:07:01.724Z,8.88
2023-05-13T00:09:28.389Z,9.63
2023-05-13T00:11:55.340Z,7.88
2023-05-13T00:14:22.011Z,9.85
2023-05-13T00:16:48.647Z,9.30
2023-05-13T00:19:15.326Z,7.75
2023-05-13T00:21:41.942Z,7.90
2023-05-13T00:24:08.663Z,9.77
2023-05-13T00:26:35.407Z,7.40
2023-05-13T00:29:02.081Z,8.77
2023-05-13T00:31:28.940Z,8.00
2023-05-13T00:33:55.671Z,10.43
2023-05-13T00:36:22.404Z,10.13
2023-05-13T00:38:49.209Z,9.07
2023-05-13T00:41:16.088Z,7.75
2023-05-13T00:43:42.816Z,9.30
2023-05-13T00:46:09.881Z,11.18
2023-05-13T00:48:36.580Z,8.05
2023-05-13T00:51:03.230Z,11.23
2023-05-13T00:53:32.318Z,8.85
2023-05-13T00:55:59.076Z,10.77
2023-05-13T00:58:25.880Z,10.57
2023-05-13T01:01:23.343Z,10.18
2023-05-13T01:04:27.514Z,13.55
2023-05-13T01:07:17.641Z,11.52
2023-05-13T01:10:06.970Z,13.82
2023-05-13T01:12:36.273Z,12.88
2023-05-13T01:15:08.472Z,11.23
2023-05-13T01:17:44.494Z,13.63
2023-05-13T01:20:11.542Z,14.93
2023-05-13T01:22:38.165Z,10.95
2023-05-13T01:25:05.025Z,10.00
2023-05-13T01:27:31.656Z,10.77
2023-05-13T01:29:58.231Z,13.23
2023-05-13T01:32:25.014Z,16.33
2023-05-13T01:34:51.897Z,16.17
2023-05-13T01:37:19.381Z,18.10
2023-05-13T01:39:46.127Z,14.70
2023-05-13T01:42:12.757Z,16.50
2023-05-13T01:44:39.364Z,16.27
2023-05-13T01:47:06.164Z,15.75
2023-05-13T01:49:32.873Z,15.13
2023-05-13T01:51:59.542Z,15.18
2023-05-13T01:54:26.198Z,16.13
2023-05-13T01:56:52.908Z,16.15
2023-05-13T01:59:19.730Z,16.83
2023-05-13T02:01:46.366Z,15.30
2023-05-13T02:04:13.177Z,19.70
2023-05-13T02:06:39.841Z,15.55
2023-05-13T02:09:06.693Z,22.58
2023-05-13T02:11:33.569Z,17.48
2023-05-13T02:14:00.205Z,20.88
2023-05-13T02:16:26.915Z,14.93
2023-05-13T02:18:53.641Z,17.63
2023-05-13T02:21:20.410Z,17.70
2023-05-13T02:23:47.565Z,17.35
2023-05-13T02:26:14.255Z,14.20
2023-05-13T02:28:40.999Z,19.52
2023-05-13T02:31:08.006Z,17.33
2023-05-13T02:33:34.719Z,20.80
2023-05-13T02:36:01.527Z,16.00
2023-05-13T02:38:28.215Z,18.80
2023-05-13T02:40:54.839Z,17.30
2023-05-13T02:43:23.402Z,19.55
2023-05-13T02:45:50.071Z,21.50
2023-05-13T02:48:17.075Z,20.92
2023-05-13T02:50:43.721Z,21.08
2023-05-13T02:53:10.422Z,18.50
2023-05-13T02:55:37.135Z,21.65
2023-05-13T02:58:04.555Z,20.90
2023-05-13T03:00:31.272Z,21.00
2023-05-13T03:02:58.169Z,27.90
2023-05-13T03:05:24.894Z,22.35
2023-05-13T03:07:51.526Z,17.85
2023-05-13T03:10:18.289Z,23.63
2023-05-13T03:12:44.978Z,23.23
2023-05-13T03:15:11.962Z,20.92
2023-05-13T03:17:38.714Z,18.92
2023-05-13T03:20:06.085Z,19.48
2023-05-13T03:22:32.859Z,17.77
2023-05-13T03:24:59.634Z,21.48
2023-05-13T03:27:26.361Z,21.38
2023-05-13T03:29:53.030Z,18.83
2023-05-13T03:32:19.832Z,17.77
2023-05-13T03:34:46.499Z,16.52
2023-05-13T03:37:13.588Z,18.05
2023-05-13T03:39:40.282Z,17.42
2023-05-13T03:42:07.166Z,19.52
2023-05-13T03:44:33.879Z,19.52
2023-05-13T03:47:00.603Z,17.42
2023-05-13T03:49:27.536Z,17.83
2023-05-13T03:51:54.286Z,19.27
2023-05-13T03:54:21.014Z,19.50
2023-05-13T03:56:47.622Z,18.00
2023-05-13T03:59:14.307Z,17.70
2023-05-13T04:01:41.049Z,20.27
2023-05-13T04:04:07.908Z,20.27
2023-05-13T04:06:34.572Z,18.52
2023-05-13T04:09:04.510Z,17.40
2023-05-13T04:11:32.024Z,23.88
2023-05-13T04:13:58.688Z,18.02
2023-05-13T04:16:25.942Z,22.83
2023-05-13T04:18:52.642Z,20.98
2023-05-13T04:21:19.556Z,22.75
2023-05-13T04:23:46.304Z,21.75
2023-05-13T04:26:13.037Z,20.83
2023-05-13T04:28:39.774Z,22.13
2023-05-13T04:31:06.542Z,20.30
2023-05-13T04:33:33.620Z,19.83
2023-05-13T04:36:00.283Z,20.52
2023-05-13T04:38:26.879Z,21.60
2023-05-13T04:40:53.610Z,24.70
2023-05-13T04:43:21.116Z,24.98
2023-05-13T04:45:48.906Z,23.48
2023-05-13T04:48:16.212Z,24.38
2023-05-13T04:50:46.888Z,22.50
2023-05-13T04:53:14.541Z,21.00
2023-05-13T04:55:41.235Z,28.08
2023-05-13T04:58:07.917Z,22.25
2023-05-13T05:00:34.751Z,21.67
2023-05-13T05:03:01.423Z,23.27
2023-05-13T05:05:28.204Z,25.40
2023-05-13T05:07:54.862Z,26.30
2023-05-13T05:10:21.840Z,28.10
2023-05-13T05:12:48.817Z,25.70
2023-05-13T05:15:15.728Z,23.73
2023-05-13T05:17:43.659Z,24.60
2023-05-13T05:20:11.136Z,21.15
2023-05-13T05:22:38.298Z,22.80
2023-05-13T05:25:05.736Z,22.15
2023-05-13T05:27:32.449Z,24.77
2023-05-13T05:29:59.076Z,21.92
2023-05-13T05:32:25.871Z,23.52
2023-05-13T05:34:52.484Z,23.05
2023-05-13T05:37:19.199Z,24.33
2023-05-13T05:39:45.903Z,25.73
2023-05-13T05:42:12.624Z,20.15
2023-05-13T05:44:39.282Z,21.58
2023-05-13T05:47:06.047Z,19.25
2023-05-13T05:49:32.703Z,22.02
2023-05-13T05:51:59.356Z,23.23
2023-05-13T05:54:26.099Z,20.27
2023-05-13T05:56:52.855Z,21.02
2023-05-13T05:59:20.020Z,17.45
2023-05-13T06:01:46.678Z,19.58
2023-05-13T06:04:13.857Z,20.83
2023-05-13T06:06:40.730Z,19.73
2023-05-13T06:09:07.657Z,16.83
2023-05-13T06:11:34.292Z,16.73
2023-05-13T06:14:01.083Z,15.23
2023-05-13T06:16:27.861Z,17.05
2023-05-13T06:18:54.624Z,13.38
2023-05-13T06:21:21.407Z,16.55
2023-05-13T06:23:48.106Z,16.67
2023-05-13T06:26:14.798Z,16.05
2023-05-13T06:28:41.518Z,17.13
2023-05-13T06:31:08.191Z,17.83
2023-05-13T06:33:34.937Z,14.90
2023-05-13T06:36:01.646Z,14.95
2023-05-13T06:38:28.394Z,14.63
2023-05-13T06:40:55.326Z,15.27
2023-05-13T06:43:22.043Z,15.15
2023-05-13T06:45:49.081Z,12.57
2023-05-13T06:48:16.165Z,17.55
2023-05-13T06:50:42.857Z,20.27
2023-05-13T06:53:11.741Z,15.32
2023-05-13T06:55:41.497Z,14.23
2023-05-13T06:58:08.811Z,14.30
2023-05-13T07:00:37.751Z,14.30
2023-05-13T07:03:05.669Z,18.20
2023-05-13T07:05:33.689Z,15.02
2023-05-13T07:08:00.583Z,12.93
2023-05-13T07:10:27.356Z,11.88
2023-05-13T07:12:53.980Z,16.58
2023-05-13T07:15:21.086Z,14.73
2023-05-13T07:17:48.129Z,22.92
2023-05-13T07:20:15.266Z,13.60
2023-05-13T07:22:41.979Z,16.95
2023-05-13T07:25:09.143Z,15.10
2023-05-13T07:27:35.832Z,19.65
2023-05-13T07:30:02.535Z,14.40
2023-05-13T07:32:30.216Z,15.30
2023-05-13T07:34:57.020Z,15.98
2023-05-13T07:37:24.486Z,24.60
2023-05-13T07:39:51.119Z,17.80
2023-05-13T07:42:19.191Z,15.85
2023-05-13T07:44:45.938Z,16.73
2023-05-13T07:47:13.626Z,22.92
2023-05-13T07:49:40.577Z,19.70
2023-05-13T07:52:07.599Z,15.18
2023-05-13T07:54:34.419Z,19.63
2023-05-13T07:57:01.089Z,17.73
2023-05-13T07:59:27.757Z,19.55
2023-05-13T08:01:54.420Z,14.20
2023-05-13T08:04:21.479Z,14.35
2023-05-13T08:06:48.357Z,15.77
2023-05-13T08:09:15.144Z,18.30
2023-05-13T08:11:41.799Z,18.98
2023-05-13T08:14:08.497Z,19.55
2023-05-13T08:16:36.337Z,21.70
2023-05-13T08:19:03.476Z,22.38
2023-05-13T08:21:30.171Z,13.75
2023-05-13T08:23:57.132Z,20.92
2023-05-13T08:26:24.050Z,17.02
2023-05-13T08:28:54.446Z,13.07
2023-05-13T08:31:21.868Z,13.85
2023-05-13T08:33:48.657Z,13.30
2023-05-13T08:36:15.868Z,11.35
2023-05-13T08:38:43.448Z,16.02
2023-05-13T08:41:12.681Z,15.18
2023-05-13T08:43:39.736Z,19.75
2023-05-13T08:46:09.041Z,17.27
2023-05-13T08:48:36.823Z,19.08
2023-05-13T08:51:03.602Z,19.65
2023-05-13T08:53:31.498Z,17.17
2023-05-13T08:55:58.153Z,17.80
2023-05-13T08:58:25.456Z,16.13
2023-05-13T09:00:53.985Z,18.00
2023-05-13T09:03:21.480Z,22.77
2023-05-13T09:05:48.263Z,17.77
2023-05-13T09:08:14.936Z,22.38
2023-05-13T09:10:41.687Z,16.80
2023-05-13T09:13:08.434Z,19.92
2023-05-13T09:15:38.106Z,16.48
2023-05-13T09:18:05.977Z,15.73
2023-05-13T09:20:33.095Z,12.95
2023-05-13T09:23:08.139Z,18.42
2023-05-13T09:25:35.648Z,16.98
2023-05-13T09:28:03.661Z,20.55
2023-05-13T09:30:33.596Z,19.95
2023-05-13T09:33:16.687Z,16.95
2023-05-13T09:35:49.331Z,20.00
2023-05-13T09:41:03.144Z,18.55
2023-05-13T09:43:33.015Z,19.35
2023-05-13T09:46:03.965Z,21.58
2023-05-13T09:48:32.199Z,16.67
2023-05-13T09:50:59.304Z,16.38
2023-05-13T09:53:26.446Z,14.43
2023-05-13T09:55:54.480Z,14.73
2023-05-13T09:58:21.968Z,13.52
2023-05-13T10:00:48.806Z,15.50
2023-05-13T10:03:16.079Z,12.82
2023-05-13T10:05:42.905Z,12.77
2023-05-13T10:08:10.841Z,10.90
2023-05-13T10:10:37.966Z,16.17
2023-05-13T10:13:08.520Z,14.15
2023-05-13T10:15:35.184Z,10.23
2023-05-13T10:18:01.842Z,12.88
2023-05-13T10:20:28.685Z,12.98
2023-05-13T10:22:55.855Z,8.77
2023-05-13T10:25:22.654Z,11.35
2023-05-13T10:27:49.280Z,11.32
2023-05-13T10:30:16.140Z,12.77
2023-05-13T10:32:42.938Z,10.73
2023-05-13T10:35:12.977Z,14.35
2023-05-13T10:37:50.388Z,14.68
2023-05-13T10:40:46.652Z,10.75
2023-05-13T10:43:19.005Z,12.43
2023-05-13T10:45:48.089Z,11.80
2023-05-13T10:48:15.702Z,9.57
2023-05-13T10:51:01.168Z,11.02
2023-05-13T10:53:30.222Z,9.10
2023-05-13T10:55:57.872Z,11.00
2023-05-13T10:58:32.889Z,9.25
2023-05-13T11:01:43.839Z,11.48
2023-05-13T11:04:15.591Z,10.48
2023-05-13T11:06:43.518Z,14.88
2023-05-13T11:09:14.591Z,16.55
2023-05-13T11:11:41.471Z,17.88
2023-05-13T11:14:17.051Z,9.82
2023-05-13T11:17:06.725Z,14.55
2023-05-13T11:19:36.167Z,8.60
2023-05-13T11:22:16.654Z,7.07
2023-05-13T11:24:47.300Z,10.82
2023-05-13T11:27:16.716Z,15.38
2023-05-13T11:29:58.417Z,12.00
2023-05-13T11:33:01.598Z,7.57
2023-05-13T11:35:31.680Z,10.80
2023-05-13T11:38:00.390Z,10.82
2023-05-13T11:40:32.273Z,6.85
2023-05-13T11:42:59.376Z,6.30
2023-05-13T11:45:26.882Z,11.32
2023-05-13T11:47:53.819Z,7.50
2023-05-13T11:50:22.613Z,6.75
2023-05-13T11:52:53.596Z,6.57
2023-05-13T11:55:36.410Z,9.82
2023-05-13T11:58:03.296Z,14.40
2023-05-13T12:00:31.130Z,6.45
2023-05-13T12:02:58.720Z,4.88
2023-05-13T12:05:26.062Z,6.60
2023-05-13T12:07:57.198Z,7.57
2023-05-13T12:10:24.678Z,12.73
2023-05-13T12:12:51.623Z,6.15
2023-05-13T12:15:19.134Z,6.65
2023-05-13T12:17:46.051Z,5.85
2023-05-13T12:20:18.692Z,5.18
2023-05-13T12:28:22.738Z,4.93
2023-05-13T12:30:53.768Z,5.10
2023-05-13T12:33:22.486Z,5.88
2023-05-13T12:35:50.597Z,5.85
2023-05-13T12:38:19.223Z,8.35
2023-05-13T12:40:46.861Z,6.13
2023-05-13T12:43:13.863Z,4.72
2023-05-13T12:45:44.007Z,6.82
2023-05-13T12:48:12.014Z,4.68
2023-05-13T12:50:38.758Z,4.68
2023-05-13T12:53:05.805Z,4.53
2023-05-13T12:55:32.889Z,5.78
2023-05-13T12:58:01.051Z,4.53
2023-05-13T13:00:27.805Z,4.85
2023-05-13T13:02:54.720Z,12.65
2023-05-13T13:05:22.268Z,5.32
2023-05-13T13:07:49.233Z,7.35
2023-05-13T13:10:15.997Z,6.38
2023-05-13T13:12:43.046Z,8.85
2023-05-13T13:15:10.655Z,4.88
2023-05-13T13:17:37.481Z,4.93
2023-05-13T13:20:05.591Z,5.32
2023-05-13T13:22:32.520Z,5.10
2023-05-13T13:24:59.191Z,5.10
2023-05-13T13:27:26.243Z,9.02
2023-05-13T13:29:52.940Z,6.38
2023-05-13T13:32:19.847Z,7.22
2023-05-13T13:34:46.784Z,8.18
2023-05-13T13:37:13.416Z,12.18
2023-05-13T13:39:40.099Z,7.13
2023-05-13T13:42:06.807Z,9.23
2023-05-13T13:44:33.487Z,9.30
2023-05-13T13:47:00.157Z,8.27
2023-05-13T13:49:26.827Z,5.43
2023-05-13T13:51:53.616Z,4.88
2023-05-13T13:54:20.458Z,5.95
2023-05-13T13:56:47.397Z,9.65
2023-05-13T13:59:14.054Z,4.45
2023-05-13T14:01:41.032Z,4.88
2023-05-13T14:04:16.484Z,4.50
2023-05-13T14:06:45.422Z,4.75
2023-05-13T14:09:12.223Z,5.35
2023-05-13T14:11:38.854Z,5.55
2023-05-13T14:14:05.700Z,6.18
2023-05-13T14:16:32.490Z,5.85
2023-05-13T14:18:59.168Z,4.22
2023-05-13T14:21:25.954Z,4.80
2023-05-13T14:23:52.803Z,4.18
2023-05-13T14:26:19.500Z,5.70
2023-05-13T14:28:46.298Z,9.68
2023-05-13T14:31:13.024Z,5.75
2023-05-13T14:33:39.750Z,4.43
2023-05-13T14:36:07.996Z,7.05
2023-05-13T14:38:34.805Z,6.20
2023-05-13T14:41:01.529Z,4.05
2023-05-13T14:43:28.318Z,5.03
2023-05-13T14:45:55.081Z,4.43
2023-05-13T14:48:21.809Z,4.40
2023-05-13T14:50:48.515Z,4.50
2023-05-13T14:53:15.199Z,4.72
2023-05-13T14:55:41.780Z,3.40
2023-05-13T14:58:09.185Z,3.80
2023-05-13T15:00:37.576Z,5.28
2023-05-13T15:03:05.114Z,4.80
2023-05-13T15:05:31.914Z,4.68
2023-05-13T15:07:59.034Z,3.95
2023-05-13T15:10:25.768Z,4.63
2023-05-13T15:12:52.483Z,4.45
2023-05-13T15:15:19.282Z,3.55
2023-05-13T15:17:45.988Z,2.90
2023-05-13T15:20:12.793Z,4.78
2023-05-13T15:22:39.427Z,3.45
2023-05-13T15:25:06.563Z,3.35
2023-05-13T15:27:33.200Z,3.38
2023-05-13T15:30:00.059Z,3.33
2023-05-13T15:32:26.707Z,7.82
2023-05-13T15:34:53.399Z,5.05
2023-05-13T15:37:20.598Z,4.10
2023-05-13T15:39:47.350Z,3.33
2023-05-13T15:42:14.128Z,3.88
2023-05-13T15:44:40.837Z,4.60
2023-05-13T15:47:07.668Z,6.00
2023-05-13T15:49:34.496Z,3.45
2023-05-13T15:52:01.681Z,4.05
2023-05-13T15:54:28.398Z,5.80
2023-05-13T15:56:56.491Z,6.10
2023-05-13T15:59:23.152Z,5.55
2023-05-13T16:01:49.816Z,6.18
2023-05-13T16:04:16.954Z,6.47
2023-05-13T16:06:43.648Z,5.32
2023-05-13T16:09:10.621Z,5.05
2023-05-13T16:11:37.442Z,4.35
2023-05-13T16:14:04.606Z,4.63
2023-05-13T16:16:31.635Z,4.75
2023-05-13T16:18:58.601Z,4.85
2023-05-13T16:21:25.339Z,4.68
2023-05-13T16:23:52.001Z,4.97
2023-05-13T16:26:18.697Z,5.03
2023-05-13T16:28:45.448Z,3.78
2023-05-13T16:31:12.222Z,5.75
2023-05-13T16:33:38.894Z,5.05
2023-05-13T16:36:06.654Z,4.25
2023-05-13T16:38:35.234Z,3.97
2023-05-13T16:41:02.000Z,3.63
2023-05-13T16:43:29.026Z,3.75
2023-05-13T16:45:55.895Z,5.82
2023-05-13T16:48:22.723Z,4.55
2023-05-13T16:50:49.581Z,3.28
2023-05-13T16:53:16.318Z,4.30
2023-05-13T16:55:43.128Z,4.05
2023-05-13T16:58:09.750Z,4.15
2023-05-13T17:00:36.480Z,3.83
2023-05-13T17:03:03.245Z,3.70
2023-05-13T17:05:31.777Z,3.72
2023-05-13T17:07:58.439Z,4.13
2023-05-13T17:10:25.257Z,4.80
2023-05-13T17:12:52.046Z,5.03
2023-05-13T17:15:18.674Z,4.32
2023-05-13T17:17:45.563Z,4.63
2023-05-13T17:20:12.538Z,4.03
2023-05-13T17:22:39.340Z,4.40
2023-05-13T17:25:06.610Z,3.90
2023-05-13T17:27:33.224Z,3.80
2023-05-13T17:29:59.836Z,4.05
2023-05-13T17:32:26.746Z,5.63
2023-05-13T17:34:53.446Z,4.05
2023-05-13T17:37:20.124Z,5.05
2023-05-13T17:39:46.766Z,5.82
2023-05-13T17:42:13.382Z,4.43
2023-05-13T17:44:40.074Z,4.20
2023-05-13T17:47:07.179Z,5.57
2023-05-13T17:49:33.943Z,3.65
2023-05-13T17:52:00.730Z,4.07
2023-05-13T17:54:27.494Z,8.57
2023-05-13T17:56:54.355Z,5.18
2023-05-13T17:59:21.216Z,4.15
2023-05-13T18:01:47.918Z,4.28
2023-05-13T18:04:14.740Z,4.72
2023-05-13T18:06:41.406Z,6.85
2023-05-13T18:09:08.438Z,3.72
2023-05-13T18:11:35.089Z,3.90
2023-05-13T18:14:01.949Z,6.43
2023-05-13T18:16:28.917Z,9.10
2023-05-13T18:18:55.902Z,4.68
2023-05-13T18:21:24.104Z,4.32
2023-05-13T18:23:50.850Z,4.20
2023-05-13T18:26:17.522Z,6.00
2023-05-13T18:28:45.352Z,5.88
2023-05-13T18:31:12.138Z,5.70
2023-05-13T18:33:38.987Z,6.10
2023-05-13T18:36:06.048Z,5.97
2023-05-13T18:38:32.621Z,5.47
2023-05-13T18:41:03.151Z,12.63
2023-05-13T18:43:30.393Z,7.45
2023-05-13T18:45:57.994Z,7.50
2023-05-13T18:48:25.087Z,5.88
2023-05-13T18:50:53.023Z,8.90
2023-05-13T18:53:19.924Z,5.60
2023-05-13T18:55:46.624Z,7.15
2023-05-13T18:58:14.075Z,6.28
2023-05-13T19:00:40.739Z,3.80
2023-05-13T19:03:07.707Z,5.88
2023-05-13T19:05:34.576Z,7.65
2023-05-13T19:08:01.230Z,3.88
2023-05-13T19:10:27.963Z,3.55
2023-05-13T19:12:54.644Z,2.80
2023-05-13T19:15:22.821Z,3.83
2023-05-13T19:17:49.581Z,5.10
2023-05-13T19:20:16.437Z,4.45
2023-05-13T19:22:43.378Z,3.42
2023-05-13T19:25:10.180Z,4.13
2023-05-13T19:27:37.007Z,4.43
2023-05-13T19:30:04.332Z,5.00
2023-05-13T19:32:31.115Z,4.20
2023-05-13T19:34:57.801Z,5.82
2023-05-13T19:37:26.274Z,7.45
2023-05-13T19:39:52.993Z,4.93
2023-05-13T19:42:19.672Z,5.45
2023-05-13T19:44:46.338Z,3.55
2023-05-13T19:47:13.047Z,3.85
2023-05-13T19:49:39.941Z,1.63
2023-05-13T19:52:06.987Z,1.17
2023-05-13T19:54:33.781Z,2.30
2023-05-13T19:57:00.693Z,1.70
2023-05-13T19:59:27.621Z,2.65
2023-05-13T20:01:54.426Z,1.20
2023-05-13T20:04:21.650Z,1.02
2023-05-13T20:06:48.417Z,1.17
2023-05-13T20:09:15.076Z,1.60
2023-05-13T20:11:41.872Z,1.65
2023-05-13T20:14:08.530Z,7.40
2023-05-13T20:16:35.139Z,3.08
2023-05-13T20:19:01.892Z,3.50
2023-05-13T20:21:28.549Z,4.03
2023-05-13T20:23:56.393Z,4.13
2023-05-13T20:26:25.742Z,4.22
2023-05-13T20:28:53.210Z,3.10
2023-05-13T20:31:20.171Z,4.45
2023-05-13T20:33:46.916Z,5.00
2023-05-13T20:36:13.566Z,3.58
2023-05-13T20:38:40.225Z,4.47
2023-05-13T20:41:07.767Z,4.80
2023-05-13T20:43:35.398Z,3.15
2023-05-13T20:46:03.767Z,4.82
2023-05-13T20:48:31.969Z,6.20
2023-05-13T20:51:01.990Z,4.93
2023-05-13T20:53:28.681Z,8.13
2023-05-13T20:55:55.478Z,7.53
2023-05-13T20:58:22.170Z,4.53
2023-05-13T21:00:48.846Z,4.88
2023-05-13T21:03:15.671Z,13.60
2023-05-13T21:05:42.364Z,12.57
2023-05-13T21:08:09.011Z,7.30
2023-05-13T21:10:35.661Z,8.55
2023-05-13T21:13:02.440Z,5.00
2023-05-13T21:15:29.159Z,7.50
2023-05-13T21:17:55.857Z,10.50
2023-05-13T21:20:22.631Z,5.25
2023-05-13T21:22:49.439Z,5.82
2023-05-13T21:25:16.164Z,5.22
2023-05-13T21:27:42.810Z,5.45
2023-05-13T21:30:10.213Z,7.18
2023-05-13T21:32:36.918Z,10.32
2023-05-13T21:35:03.882Z,5.95
2023-05-13T21:37:30.637Z,7.45
2023-05-13T21:39:57.298Z,6.13
2023-05-13T21:42:27.129Z,5.22
2023-05-13T21:44:53.865Z,5.60
2023-05-13T21:47:20.585Z,12.45
2023-05-13T21:49:47.379Z,9.38
2023-05-13T21:52:14.056Z,12.35
2023-05-13T21:54:40.743Z,14.35
2023-05-13T21:57:07.973Z,13.50
2023-05-13T21:59:34.617Z,13.13
2023-05-13T22:02:01.239Z,13.27
2023-05-13T22:04:27.912Z,14.07
2023-05-13T22:06:54.673Z,15.30
2023-05-13T22:09:21.342Z,11.80
2023-05-13T22:11:48.083Z,23.27
2023-05-13T22:14:14.966Z,19.88
2023-05-13T22:16:41.713Z,14.43
2023-05-13T22:19:08.569Z,13.18
2023-05-13T22:21:35.927Z,14.95
2023-05-13T22:24:05.059Z,13.95
2023-05-13T22:26:32.158Z,15.05
2023-05-13T22:28:58.838Z,15.25
2023-05-13T22:31:26.626Z,18.15
2023-05-13T22:33:53.267Z,18.45
2023-05-13T22:36:20.016Z,17.55
2023-05-13T22:38:46.922Z,18.75
2023-05-13T22:41:13.661Z,18.77
2023-05-13T22:43:40.506Z,17.45
2023-05-13T22:46:07.390Z,15.05
2023-05-13T22:48:34.083Z,15.63
2023-05-13T22:51:00.717Z,20.95
2023-05-13T22:53:27.452Z,19.70
2023-05-13T22:55:54.064Z,15.05
2023-05-13T22:58:21.055Z,20.83
2023-05-13T23:00:48.805Z,17.67
2023-05-13T23:03:15.681Z,18.05
2023-05-13T23:05:42.368Z,23.10
2023-05-13T23:08:09.005Z,20.20
2023-05-13T23:10:35.654Z,21.98
2023-05-13T23:13:05.551Z,21.17
2023-05-13T23:15:32.904Z,16.08
2023-05-13T23:17:59.826Z,17.13
2023-05-13T23:20:26.572Z,16.25
2023-05-13T23:22:54.126Z,19.15
2023-05-13T23:25:20.949Z,15.10
2023-05-13T23:27:47.614Z,16.80
2023-05-13T23:30:14.777Z,18.00
2023-05-13T23:32:41.530Z,19.17
2023-05-13T23:35:08.782Z,18.30
2023-05-13T23:37:36.350Z,21.40
2023-05-13T23:40:03.314Z,18.77
2023-05-13T23:42:29.995Z,15.93
2023-05-13T23:44:56.936Z,19.58
2023-05-13T23:47:23.917Z,17.00
2023-05-13T23:49:50.659Z,20.90
2023-05-13T23:52:17.378Z,17.50
2023-05-13T23:54:44.100Z,16.52
2023-05-13T23:57:10.723Z,16.80
2023-05-13T23:59:37.361Z,18.25
